Date,TemperatureHighF,TemperatureAvgF,TemperatureLowF,DewpointHighF,DewpointAvgF,DewpointLowF,HumidityHigh,HumidityAvg,HumidityLow,PressureMaxIn,PressureMinIn,WindSpeedMaxMPH,WindSpeedAvgMPH,GustSpeedMaxMPH,PrecipitationSumIn
2013-1-1,77,72,62,64,61,58,91,69,59,30.21,30.06,16,2,16,0.00
2013-1-2,80,69,59,68,64,57,99,85,56,30.09,29.99,9,1,10,0.00
2013-1-3,80,72,65,70,67,64,97,85,67,30.14,30.03,12,1,12,0.00
2013-1-4,80,71,64,72,68,63,99,90,74,30.23,30.11,8,0,8,0.00
2013-1-5,77,68,63,70,67,62,98,94,77,30.25,30.16,8,0,8,0.13
2013-1-6,81,73,63,72,69,62,99,88,74,30.19,30.06,12,1,13,0.01
2013-1-7,74,70,66,70,68,65,98,95,87,30.17,30.07,9,0,10,0.27
2013-1-8,81,75,70,74,71,67,97,88,76,30.20,30.08,15,1,15,0.31
2013-1-9,82,77,74,73,71,69,91,82,74,30.29,30.16,12,2,13,0.01
2013-1-10,81,76,74,70,68,65,84,75,59,30.30,30.19,13,2,13,0.00
2013-1-11,80,76,73,71,68,66,86,79,69,30.26,30.16,13,1,13,0.00
2013-1-12,81,75,71,69,67,65,85,77,65,30.19,30.10,9,1,9,0.00
2013-1-13,80,75,72,69,66,63,83,74,65,30.13,30.08,13,2,13,0.00
2013-1-14,79,75,71,68,65,62,82,72,62,30.18,30.12,15,1,15,0.00
2013-1-15,80,75,71,68,67,63,84,76,65,30.14,30.05,9,1,10,0.00
2013-1-16,81,74,64,70,67,62,96,81,68,30.11,30.02,12,1,13,0.02
2013-1-17,79,70,60,72,66,54,99,88,75,30.09,29.97,15,2,15,0.45
2013-1-18,70,63,51,61,54,46,83,72,62,30.23,30.09,12,2,12,0.00
2013-1-19,72,69,65,68,64,60,97,87,70,30.22,30.10,7,0,8,0.20
2013-1-20,78,70,64,70,66,63,99,89,71,30.15,30.02,8,0,9,0.27
2013-1-21,79,69,64,71,66,63,99,92,74,30.08,29.97,10,0,10,0.40
2013-1-22,76,68,62,64,59,52,97,76,58,30.22,30.00,14,2,15,0.01
2013-1-23,74,67,59,59,55,51,86,66,49,30.30,30.20,10,1,12,0.00
2013-1-24,76,65,58,56,53,45,88,68,44,30.30,30.20,10,1,11,0.00
2013-1-25,77,66,56,61,56,51,88,73,52,30.29,30.18,7,0,9,0.00
2013-1-26,78,67,58,61,58,52,95,75,48,30.26,30.17,10,0,10,0.00
2013-1-27,78,70,60,64,60,58,96,75,51,30.30,30.20,10,1,10,0.00
2013-1-28,80,74,71,68,65,60,84,72,59,30.32,30.23,10,1,10,0.00
2013-1-29,78,74,69,70,68,66,93,81,73,30.24,30.13,15,2,15,0.26
2013-1-30,78,74,70,69,66,63,90,77,69,30.13,29.97,18,3,18,0.00
2013-1-31,72,66,57,70,59,41,96,78,48,30.19,29.95,11,1,16,0.00
2013-2-1,74,62,52,57,49,40,77,64,51,30.27,30.17,13,1,16,0.00
2013-2-2,75,63,54,54,49,37,91,63,43,30.27,30.12,8,1,8,0.00
2013-2-3,76,61,50,54,49,41,95,69,32,30.17,30.07,9,0,9,0.00
2013-2-4,75,61,49,55,48,39,90,66,30,30.15,30.03,9,1,9,0.00
2013-2-5,77,65,51,64,58,50,99,79,55,30.09,30.01,9,1,9,0.00
2013-2-6,80,69,59,67,62,58,99,80,63,30.11,30.03,8,0,8,0.00
2013-2-7,80,74,69,69,65,62,82,74,64,30.08,29.94,11,1,12,0.00
2013-2-8,83,73,67,70,67,63,96,80,56,30.04,29.90,14,2,14,0.00
2013-2-9,79,70,64,68,64,60,98,82,65,30.18,30.02,10,1,11,0.00
2013-2-10,76,72,69,64,62,59,77,72,64,30.27,30.15,12,2,12,0.00
2013-2-11,78,73,70,66,64,60,79,72,65,30.23,30.11,13,3,13,0.00
2013-2-12,81,74,65,70,67,63,95,81,68,30.12,29.98,17,3,18,0.00
2013-2-13,81,75,66,73,70,65,98,86,75,30.02,29.89,18,2,18,0.00
2013-2-14,78,70,63,72,67,62,97,92,80,30.01,29.86,19,1,24,0.46
2013-2-15,72,66,63,68,65,62,98,95,82,30.03,29.94,8,0,10,0.53
2013-2-16,73,65,54,64,57,44,98,77,46,30.09,29.88,17,2,18,0.02
2013-2-17,60,51,44,45,30,18,75,47,22,30.31,30.08,20,2,20,0.00
2013-2-18,70,59,46,58,46,33,71,61,47,30.33,30.21,12,1,13,0.00
2013-2-19,77,71,64,66,61,53,90,70,60,30.21,30.09,15,3,15,0.00
2013-2-20,78,69,61,68,64,60,99,86,61,30.12,30.02,6,1,10,0.08
2013-2-21,81,74,65,69,67,64,95,80,64,30.10,30.00,10,1,10,0.00
2013-2-22,81,76,72,72,70,66,90,83,73,30.11,30.02,15,3,15,0.00
2013-2-23,81,76,70,73,70,68,97,85,75,30.06,29.92,17,4,21,0.33
2013-2-24,86,76,70,75,71,69,99,87,60,30.00,29.91,12,2,13,0.34
2013-2-25,82,75,67,74,71,66,98,88,76,29.93,29.82,16,2,16,0.00
2013-2-26,83,78,75,74,72,70,91,82,69,29.90,29.80,18,4,18,0.00
2013-2-27,78,70,62,73,66,60,97,87,62,29.98,29.86,11,1,11,0.20
2013-2-28,71,64,59,63,54,46,97,72,42,30.01,29.91,9,1,9,0.07
2013-3-1,65,62,58,58,51,48,85,69,58,29.99,29.90,9,1,10,0.00
2013-3-2,66,58,50,50,42,36,77,58,41,30.04,29.95,20,2,20,0.00
2013-3-3,62,54,49,47,42,39,88,65,46,30.16,29.96,18,2,18,0.00
2013-3-4,66,53,41,46,38,32,87,59,29,30.22,30.12,10,1,12,0.00
2013-3-5,74,62,47,58,53,44,95,73,54,30.19,30.09,12,1,14,0.00
2013-3-6,78,64,52,64,52,33,95,67,29,30.10,29.94,18,2,18,0.00
2013-3-7,71,59,47,55,46,36,92,64,38,30.19,30.07,9,1,11,0.00
2013-3-8,74,62,51,54,51,44,92,71,36,30.20,30.11,9,1,10,0.00
2013-3-9,74,64,53,58,54,49,92,69,52,30.19,30.10,11,1,11,0.00
2013-3-10,76,70,66,61,57,52,75,63,51,30.17,30.08,7,2,10,0.00
2013-3-11,77,72,68,63,61,59,76,69,55,30.12,29.96,13,3,15,0.00
2013-3-12,79,74,70,70,66,62,85,77,68,30.01,29.91,19,4,19,0.00
2013-3-13,77,66,57,66,56,44,93,72,42,30.12,29.98,14,2,14,0.00
2013-3-14,71,61,53,53,48,39,90,65,36,30.21,30.09,15,2,16,0.00
2013-3-15,72,62,52,55,51,44,84,67,51,30.25,30.15,10,1,10,0.00
2013-3-16,75,65,53,57,54,51,97,70,46,30.20,30.09,13,1,13,0.00
2013-3-17,76,68,57,62,59,54,92,73,58,30.16,30.04,13,1,14,0.00
2013-3-18,79,72,67,70,66,61,97,81,69,30.08,29.97,20,2,20,0.10
2013-3-19,80,72,66,69,68,65,97,88,62,30.01,29.83,16,1,16,0.08
2013-3-20,80,71,62,70,65,57,100,84,55,29.98,29.81,17,1,17,0.01
2013-3-21,76,66,55,62,55,49,94,71,41,29.96,29.83,12,1,14,0.00
2013-3-22,76,66,51,70,59,50,99,81,58,30.01,29.91,11,2,13,0.01
2013-3-23,83,76,70,75,72,69,98,87,71,30.00,29.81,21,2,21,0.00
2013-3-24,91,79,72,73,71,67,96,78,51,29.90,29.68,23,4,23,0.01
2013-3-25,81,74,65,72,59,38,94,65,33,29.99,29.75,13,2,15,0.02
2013-3-26,70,61,52,44,38,31,58,44,25,30.21,29.99,17,2,17,0.00
2013-3-27,69,57,45,48,42,34,78,58,39,30.25,30.17,10,1,12,0.00
2013-3-28,72,60,50,51,45,32,83,60,29,30.27,30.18,10,1,10,0.00
2013-3-29,76,64,53,54,50,45,82,62,43,30.29,30.21,11,1,11,0.00
2013-3-30,76,68,60,55,53,49,82,59,40,30.27,30.17,9,1,9,0.00
2013-3-31,79,72,67,66,62,55,83,70,59,30.19,30.05,15,3,15,0.00
2013-4-1,87,76,70,72,67,61,89,73,43,30.06,29.94,17,3,19,0.01
2013-4-2,82,73,65,68,66,64,98,79,57,30.08,29.99,11,1,11,0.01
2013-4-3,81,76,71,70,68,66,86,78,68,30.07,30.00,12,2,13,0.00
2013-4-4,82,75,68,73,70,67,97,85,74,30.06,29.91,20,3,20,0.50
2013-4-5,73,68,65,71,66,64,97,92,82,29.99,29.82,15,2,15,0.51
2013-4-6,77,68,58,66,62,56,97,80,62,30.09,29.92,11,1,13,0.01
2013-4-7,79,73,70,65,63,61,77,70,59,30.14,30.03,12,2,12,0.00
2013-4-8,81,73,61,66,62,58,97,70,52,30.14,30.05,9,1,9,0.00
2013-4-9,82,76,72,69,67,64,84,74,61,30.16,30.05,10,1,11,0.00
2013-4-10,84,77,73,73,70,66,87,80,70,30.11,30.00,15,1,15,0.00
2013-4-11,82,77,74,73,72,70,90,83,74,30.03,29.91,15,4,16,0.01
2013-4-12,85,79,76,77,74,73,95,87,75,29.96,29.88,19,4,19,0.15
2013-4-13,84,76,70,76,72,68,95,89,73,29.97,29.88,14,1,14,0.29
2013-4-14,85,78,70,76,74,69,99,86,72,29.98,29.90,15,2,15,0.00
2013-4-15,86,77,70,77,73,68,97,88,68,30.07,29.93,18,1,18,0.49
2013-4-16,86,77,70,77,73,69,100,87,71,30.12,30.02,10,1,10,0.08
2013-4-17,84,78,73,71,69,67,86,75,62,30.12,30.03,10,1,11,0.00
2013-4-18,86,79,75,75,71,68,85,77,67,30.07,29.98,11,2,12,0.00
2013-4-19,86,81,78,75,73,70,87,77,66,30.06,29.97,18,4,18,0.00
2013-4-20,87,78,72,76,73,69,98,86,66,30.09,29.96,15,1,16,0.25
2013-4-21,84,77,71,75,72,70,97,85,71,30.10,29.99,13,1,13,0.04
2013-4-22,83,74,69,72,70,67,97,86,63,30.05,29.93,10,1,11,0.91
2013-4-23,83,75,67,70,66,61,97,76,58,30.09,29.96,15,2,15,0.01
2013-4-24,84,77,72,67,64,60,76,65,54,30.14,30.04,11,1,11,0.00
2013-4-25,83,76,71,65,63,60,75,64,52,30.20,30.08,8,1,9,0.00
2013-4-26,83,76,68,67,64,61,83,69,57,30.23,30.12,12,1,12,0.00
2013-4-27,82,77,72,68,64,61,76,66,55,30.21,30.09,12,2,12,0.00
2013-4-28,83,77,72,68,64,62,73,65,53,30.12,30.00,11,1,11,0.00
2013-4-29,83,77,74,71,68,63,83,73,61,30.04,29.94,14,2,14,0.00
2013-4-30,81,76,70,72,70,68,94,82,72,30.00,29.93,14,1,14,0.11
2013-5-1,85,75,68,74,71,67,98,88,67,30.01,29.93,8,0,9,0.13
2013-5-2,79,72,66,73,70,65,98,93,79,29.94,29.81,13,1,15,6.21
2013-5-3,87,74,68,72,69,67,98,85,53,29.82,29.68,14,1,16,0.09
2013-5-4,89,76,67,72,68,66,98,78,50,29.81,29.69,14,1,14,0.05
2013-5-5,84,74,61,68,62,52,94,71,37,29.94,29.75,12,2,14,0.00
2013-5-6,85,70,57,64,60,55,97,73,44,30.02,29.92,10,1,10,0.01
2013-5-7,85,72,61,67,61,57,89,69,45,30.07,29.97,14,1,14,0.00
2013-5-8,85,74,62,66,62,53,93,69,34,30.14,30.04,10,1,10,0.00
2013-5-9,86,77,65,74,68,59,91,75,60,30.15,30.06,9,1,10,0.00
2013-5-10,87,80,73,75,72,69,90,78,60,30.14,30.01,14,2,14,0.00
2013-5-11,85,79,72,76,73,70,98,84,72,30.08,29.98,17,2,17,0.01
2013-5-12,86,77,70,75,72,67,98,84,65,30.06,29.94,15,2,15,0.81
2013-5-13,89,78,70,73,70,65,98,79,48,30.09,29.99,11,1,11,0.02
2013-5-14,83,76,72,66,61,56,77,60,47,30.18,30.06,12,2,12,0.00
2013-5-15,83,76,71,66,62,56,73,61,47,30.20,30.10,9,1,11,0.00
2013-5-16,84,76,69,66,62,58,74,62,51,30.12,30.05,10,1,10,0.00
2013-5-17,86,78,69,74,70,64,94,77,63,30.10,30.01,9,1,10,0.00
2013-5-18,85,79,73,74,72,69,96,80,67,30.11,30.04,14,1,14,0.01
2013-5-19,86,80,75,72,70,68,83,72,59,30.11,30.00,10,1,10,0.02
2013-5-20,82,76,69,74,72,67,98,88,76,30.09,29.97,14,1,16,2.14
2013-5-21,83,76,69,75,71,68,98,85,66,30.05,29.94,11,1,11,0.39
2013-5-22,85,76,69,76,72,67,97,89,73,29.98,29.90,15,1,15,1.20
2013-5-23,94,82,73,77,73,66,97,78,40,30.01,29.91,12,1,12,0.01
2013-5-24,90,82,76,77,74,70,97,79,58,30.06,29.94,10,1,10,0.00
2013-5-25,86,79,72,75,69,63,96,71,52,30.17,30.04,12,2,12,0.05
2013-5-26,85,79,73,69,66,58,78,64,55,30.18,30.11,14,1,14,0.00
2013-5-27,85,78,72,74,70,64,95,76,68,30.16,30.07,11,2,14,0.18
2013-5-28,82,78,74,74,73,70,95,85,74,30.12,30.04,18,2,18,0.23
2013-5-29,82,75,70,75,72,68,97,89,72,30.10,30.03,18,2,18,2.76
2013-5-30,85,78,72,76,72,69,94,82,70,30.08,30.01,17,2,17,0.18
2013-5-31,85,79,74,76,74,71,96,85,73,30.07,30.00,14,2,15,0.22
2013-6-1,86,77,73,78,74,72,97,91,75,30.04,29.96,13,1,13,1.06
2013-6-2,88,79,71,77,74,71,99,85,64,30.01,29.92,14,1,14,0.00
2013-6-3,86,78,71,78,74,70,99,87,69,30.04,29.91,12,1,12,0.10
2013-6-4,85,78,73,77,74,71,98,88,65,30.05,29.96,7,0,9,0.16
2013-6-5,84,80,78,78,76,74,91,87,81,30.02,29.90,8,0,8,0.04
2013-6-6,86,80,76,80,76,72,96,88,77,29.91,29.78,22,4,22,0.88
2013-6-7,91,77,73,78,74,72,98,89,60,29.99,29.84,18,1,18,0.43
2013-6-8,87,78,74,81,76,73,98,92,78,30.11,29.97,11,1,12,0.82
2013-6-9,88,82,77,78,76,73,94,80,68,30.12,30.04,11,1,12,0.07
2013-6-10,89,83,79,78,76,74,88,81,68,30.10,30.01,9,1,11,0.00
2013-6-11,88,82,79,78,76,73,91,83,64,30.09,30.01,15,1,15,0.00
2013-6-12,89,81,76,79,76,75,97,87,71,30.09,30.02,8,0,8,0.01
2013-6-13,89,80,74,78,74,71,99,84,64,30.05,29.94,11,1,11,0.00
2013-6-14,95,81,74,77,73,70,97,79,50,29.98,29.88,13,1,13,0.00
2013-6-15,92,82,74,77,75,72,97,80,58,30.06,29.92,7,0,8,0.00
2013-6-16,91,83,74,78,76,73,98,81,64,30.10,30.02,9,1,10,0.00
2013-6-17,91,84,78,78,76,74,88,77,63,30.09,30.01,11,1,13,0.00
2013-6-18,89,84,79,77,76,74,87,77,64,30.07,29.99,13,2,13,0.00
2013-6-19,90,83,77,78,76,75,96,80,65,30.05,29.99,14,2,14,0.20
2013-6-20,90,82,72,77,74,67,93,79,64,30.09,30.02,14,1,14,0.02
2013-6-21,90,84,80,76,74,72,84,73,60,30.12,30.03,10,1,10,0.00
2013-6-22,90,84,78,76,74,72,86,74,62,30.11,30.04,9,1,9,0.00
2013-6-23,90,83,77,77,75,72,92,76,61,30.14,30.05,12,1,13,0.07
2013-6-24,90,84,77,77,74,71,88,73,62,30.17,30.08,9,1,9,0.04
2013-6-25,90,84,79,78,76,73,87,77,65,30.14,30.05,12,1,12,0.00
2013-6-26,90,83,76,77,75,72,92,78,61,30.09,30.01,11,2,12,0.05
2013-6-27,90,82,77,78,75,72,93,80,63,30.06,29.96,8,0,9,0.01
2013-6-28,88,80,74,78,74,70,97,83,67,30.00,29.87,13,1,13,0.65
2013-6-29,89,80,74,78,75,71,98,87,63,29.93,29.82,16,1,18,0.48
2013-6-30,88,81,76,78,75,72,93,83,62,29.96,29.85,18,2,18,0.01
2013-7-1,89,82,73,80,76,70,97,82,70,30.05,29.92,17,2,17,0.25
2013-7-2,89,82,76,79,77,74,96,83,71,30.12,29.98,13,2,14,0.26
2013-7-3,88,81,77,79,76,74,92,83,70,30.13,30.05,14,2,16,0.23
2013-7-4,89,84,78,78,76,72,88,77,64,30.16,30.07,14,2,14,0.02
2013-7-5,86,81,76,79,76,73,93,84,73,30.15,30.06,13,1,14,0.46
2013-7-6,90,83,80,78,75,73,87,79,64,30.13,30.04,11,1,12,0.16
2013-7-7,90,83,78,79,76,73,90,78,66,30.11,30.03,17,1,17,0.06
2013-7-8,91,84,79,77,74,72,86,74,59,30.15,30.08,9,1,10,0.00
2013-7-9,89,81,74,76,73,70,92,77,57,30.14,30.05,7,1,10,0.13
2013-7-10,85,78,70,76,74,68,98,86,74,30.09,30.00,10,1,11,0.58
2013-7-11,89,82,76,78,75,73,94,80,67,30.05,29.95,12,1,12,0.00
2013-7-12,91,80,75,77,74,69,97,81,56,29.97,29.90,13,1,13,0.00
2013-7-13,88,76,72,77,73,71,98,92,70,30.04,29.92,10,0,10,0.66
2013-7-14,90,79,72,77,73,70,98,85,61,30.10,29.99,11,1,11,0.22
2013-7-15,89,80,71,78,74,70,98,83,63,30.10,30.01,10,0,11,0.21
2013-7-16,84,78,72,75,72,69,97,83,66,30.15,30.05,21,1,21,0.75
2013-7-17,81,78,73,75,73,69,96,86,74,30.15,30.05,14,0,14,0.23
2013-7-18,85,76,72,77,73,69,99,91,72,30.13,30.06,16,0,16,0.42
2013-7-19,88,80,72,79,76,72,99,87,72,30.14,30.05,12,1,12,0.14
2013-7-20,88,82,77,80,77,73,91,85,72,30.12,30.04,15,2,16,0.00
2013-7-21,88,80,74,80,76,72,97,87,72,30.17,30.05,11,1,11,0.36
2013-7-22,88,82,74,78,76,73,98,82,66,30.15,30.07,8,2,14,0.36
2013-7-23,90,83,75,79,76,74,96,80,64,30.11,29.98,15,2,15,0.00
2013-7-24,94,84,77,78,74,68,94,73,51,30.03,29.91,12,1,12,0.00
2013-7-25,94,84,74,77,74,71,96,74,53,30.02,29.92,12,1,12,0.00
2013-7-26,93,83,78,78,75,73,90,79,56,30.03,29.94,13,1,15,0.00
2013-7-27,90,80,75,78,75,72,95,87,66,30.01,29.94,12,1,12,0.09
2013-7-28,86,79,74,79,75,71,96,89,72,30.08,29.96,9,0,9,0.57
2013-7-29,90,82,75,80,76,74,97,84,69,30.14,30.03,8,0,9,0.00
2013-7-30,91,84,76,80,77,69,96,81,67,30.17,30.08,11,1,11,0.02
2013-7-31,92,85,80,79,76,72,91,76,61,30.12,30.01,10,1,10,0.01
2013-8-1,90,84,80,77,75,72,84,74,61,30.06,29.95,9,1,10,0.00
2013-8-2,89,80,75,78,74,72,95,82,59,30.06,29.92,10,0,10,0.05
2013-8-3,86,77,70,79,74,68,99,92,77,30.16,30.03,31,0,31,1.31
2013-8-4,92,80,74,79,75,72,100,87,62,30.11,29.98,12,1,12,0.02
2013-8-5,93,80,75,80,76,72,96,86,63,30.04,29.95,9,0,10,0.23
2013-8-6,91,81,74,79,76,72,99,83,66,29.99,29.89,10,1,10,0.00
2013-8-7,89,83,76,79,76,74,97,82,67,29.99,29.91,15,1,15,0.00
2013-8-8,91,85,81,79,76,74,85,75,61,30.02,29.93,11,1,11,0.00
2013-8-9,89,83,80,78,75,71,84,77,65,30.07,29.96,15,1,15,0.00
2013-8-10,92,84,80,79,76,74,85,77,65,30.12,30.04,10,1,11,0.00
2013-8-11,92,85,81,80,77,74,84,77,66,30.14,30.06,8,1,9,0.00
2013-8-12,90,84,78,78,75,73,87,76,63,30.12,30.02,10,1,10,0.00
2013-8-13,91,85,80,78,76,74,88,76,61,30.05,29.96,12,1,12,0.00
2013-8-14,91,84,79,77,75,73,88,75,61,30.03,29.94,13,2,13,0.00
2013-8-15,87,81,75,78,76,73,97,84,68,30.07,29.97,10,1,10,0.41
2013-8-16,91,84,77,80,78,75,97,82,66,30.06,29.99,9,1,10,0.01
2013-8-17,92,85,82,80,78,76,87,79,67,30.09,30.01,10,1,10,0.00
2013-8-18,91,85,81,80,77,74,85,78,67,30.09,30.00,14,1,15,0.00
2013-8-19,91,85,81,79,77,75,87,78,66,30.08,29.97,11,1,11,0.00
2013-8-20,91,84,77,79,77,72,94,78,64,30.07,29.99,9,1,9,0.05
2013-8-21,90,83,78,80,78,75,94,83,70,30.09,30.00,11,1,11,0.11
2013-8-22,91,85,80,80,78,74,92,79,68,30.07,29.96,11,1,12,0.23
2013-8-23,90,83,80,80,77,74,89,80,65,30.02,29.94,13,0,13,0.09
2013-8-24,92,84,77,79,76,72,94,78,65,30.11,29.98,9,1,9,0.00
2013-8-25,87,81,75,77,75,72,96,83,68,30.16,30.03,9,0,10,0.03
2013-8-26,91,80,73,78,75,70,97,84,60,30.12,30.01,12,0,12,0.22
2013-8-27,86,78,73,77,73,71,98,87,64,30.06,29.97,8,0,8,0.07
2013-8-28,89,81,74,77,74,66,97,82,63,30.04,29.96,12,1,12,0.04
2013-8-29,90,82,73,79,75,68,97,82,66,30.04,29.93,9,1,9,0.04
2013-8-30,90,83,74,77,75,71,98,78,55,30.01,29.91,12,1,12,0.00
2013-8-31,89,80,73,78,74,70,96,84,67,29.99,29.92,9,1,9,0.02
2013-9-1,89,79,73,79,75,72,99,88,69,30.01,29.94,9,0,9,0.00
2013-9-2,91,78,72,79,74,70,99,90,64,30.04,29.95,9,0,18,1.62
2013-9-3,91,80,71,79,75,70,100,86,64,30.03,29.94,8,0,8,0.01
2013-9-4,88,82,78,80,77,74,91,84,74,30.07,29.95,7,0,7,0.00
2013-9-5,92,85,80,80,77,76,91,79,65,30.08,30.00,9,0,10,0.08
2013-9-6,91,84,77,80,77,76,97,82,63,30.04,29.93,8,0,8,0.11
2013-9-7,87,78,73,79,75,71,98,91,75,29.99,29.91,9,0,10,0.25
2013-9-8,90,80,73,79,75,72,98,86,65,29.95,29.86,7,0,7,0.03
2013-9-9,89,81,73,78,75,71,98,81,62,30.01,29.90,9,1,9,0.04
2013-9-10,88,82,78,78,75,73,90,80,69,30.05,29.96,8,1,16,0.04
2013-9-11,83,80,74,79,75,72,96,86,80,30.07,29.97,11,0,11,0.42
2013-9-12,86,80,75,78,76,73,96,88,77,30.02,29.89,8,0,8,0.14
2013-9-13,90,81,73,79,75,72,100,83,65,29.91,29.81,11,0,11,1.06
2013-9-14,91,83,74,78,75,73,98,79,61,29.98,29.83,8,0,10,0.00
2013-9-15,87,81,77,79,76,70,93,84,72,30.06,29.93,16,1,16,0.00
2013-9-16,86,81,75,79,76,73,96,86,73,30.06,29.96,13,1,13,0.45
2013-9-17,81,79,73,78,75,71,97,89,82,30.04,29.92,9,1,10,0.97
2013-9-18,87,79,74,78,75,72,97,89,70,30.02,29.91,7,0,10,0.36
2013-9-19,88,80,73,78,75,71,99,85,71,30.01,29.92,10,1,14,0.04
2013-9-20,88,81,75,74,71,68,86,72,57,30.00,29.90,12,1,12,0.00
2013-9-21,88,81,74,75,72,70,90,75,63,29.92,29.78,7,0,8,0.00
2013-9-22,88,82,75,79,76,72,95,81,62,29.87,29.76,13,1,13,0.00
2013-9-23,87,80,76,79,76,72,97,90,71,29.98,29.86,19,0,19,0.14
2013-9-24,92,79,74,80,76,72,99,90,62,29.97,29.87,14,1,15,0.91
2013-9-25,90,80,71,80,74,70,98,84,57,29.91,29.80,13,1,13,0.00
2013-9-26,92,80,75,80,76,73,97,88,66,29.87,29.79,11,1,18,0.17
2013-9-27,91,80,73,76,74,71,98,83,54,29.92,29.82,11,1,12,0.05
2013-9-28,88,79,72,76,73,70,98,83,64,29.96,29.88,9,1,9,0.33
2013-9-29,88,81,73,73,71,68,93,73,56,29.97,29.88,8,0,10,0.03
2013-9-30,88,80,71,73,71,69,96,75,58,30.01,29.91,6,0,8,0.00
2013-10-1,88,82,77,76,73,70,83,74,62,30.04,29.96,10,1,10,0.00
2013-10-2,88,82,79,75,73,71,84,75,62,30.05,29.97,10,1,10,0.00
2013-10-3,88,82,77,76,73,71,85,76,60,30.06,29.96,10,0,10,0.00
2013-10-4,88,81,75,74,72,69,87,74,61,30.06,29.99,8,0,8,0.00
2013-10-5,90,80,70,76,71,68,97,77,60,30.04,29.94,8,0,9,0.00
2013-10-6,90,82,75,76,73,70,91,76,56,29.97,29.87,8,0,8,0.00
2013-10-7,92,78,72,78,72,70,95,83,52,29.91,29.81,18,1,19,0.04
2013-10-8,93,80,75,78,74,70,97,83,55,29.94,29.85,10,1,11,0.02
2013-10-9,85,77,70,76,73,69,95,86,73,29.99,29.90,13,1,13,0.00
2013-10-10,87,79,71,76,72,68,96,79,59,30.01,29.94,12,1,12,0.00
2013-10-11,86,78,68,72,68,66,98,74,58,30.02,29.94,10,1,11,0.00
2013-10-12,86,77,66,71,68,65,98,76,57,30.03,29.95,8,0,8,0.00
2013-10-13,86,77,70,73,67,63,95,73,48,30.05,29.97,14,1,14,0.01
2013-10-14,87,78,68,72,69,67,96,75,55,30.02,29.91,8,0,8,0.00
2013-10-15,87,78,70,73,70,68,96,79,62,29.96,29.88,9,1,9,0.00
2013-10-16,86,78,70,72,70,67,95,77,61,29.96,29.89,7,0,7,0.00
2013-10-17,87,79,70,74,71,68,98,78,59,29.97,29.89,7,0,7,0.00
2013-10-18,88,80,71,75,72,69,97,78,63,29.99,29.91,8,1,10,0.00
2013-10-19,87,82,76,75,73,71,87,76,63,29.97,29.88,11,1,12,0.00
2013-10-20,88,81,75,78,75,73,96,83,65,29.97,29.88,11,1,11,0.00
2013-10-21,88,82,74,78,76,73,97,82,70,30.01,29.91,11,1,12,0.00
2013-10-22,88,82,75,78,76,72,93,82,69,29.97,29.83,13,2,14,0.00
2013-10-23,90,80,75,76,73,68,94,79,59,29.96,29.82,10,1,10,0.00
2013-10-24,82,76,72,69,66,60,82,70,57,30.09,29.94,12,1,12,0.00
2013-10-25,83,76,68,67,64,62,85,66,54,30.16,30.06,14,2,14,0.00
2013-10-26,85,77,68,66,63,61,87,64,51,30.15,30.06,10,1,10,0.00
2013-10-27,85,74,65,67,63,60,87,70,50,30.09,30.03,9,0,9,0.00
2013-10-28,85,78,73,68,65,62,75,64,48,30.14,30.05,9,1,10,0.00
2013-10-29,86,79,71,71,67,65,87,69,57,30.18,30.09,13,1,13,0.00
2013-10-30,85,79,76,70,67,65,75,68,57,30.19,30.09,11,2,12,0.00
2013-10-31,87,80,76,74,71,66,84,74,61,30.12,30.00,12,1,12,0.00
2013-11-1,86,81,77,75,73,71,83,78,69,30.01,29.89,14,2,14,0.01
2013-11-2,90,79,69,73,70,62,99,76,48,29.94,29.81,12,1,12,0.00
2013-11-3,83,74,68,67,64,61,85,70,54,30.03,29.89,16,2,16,0.00
2013-11-4,80,76,72,69,64,56,85,67,50,30.08,30.01,18,3,18,0.05
2013-11-5,82,78,76,71,69,65,79,73,65,30.10,30.02,16,3,17,0.00
2013-11-6,85,78,72,71,69,67,86,73,60,30.07,30.00,15,2,16,0.00
2013-11-7,86,76,68,73,70,67,97,83,59,30.02,29.92,10,1,10,0.00
2013-11-8,84,76,70,73,70,67,95,82,62,30.04,29.94,15,2,15,0.17
2013-11-9,78,76,73,72,71,70,95,86,79,30.12,30.01,15,3,20,0.38
2013-11-10,84,78,77,73,71,68,83,77,69,30.12,30.05,11,1,11,0.00
2013-11-11,84,78,75,72,69,66,82,74,65,30.12,30.05,10,1,10,0.00
2013-11-12,85,78,70,70,68,66,93,74,59,30.09,29.97,9,1,9,0.00
2013-11-13,76,72,68,68,63,56,91,76,63,30.22,29.99,19,4,20,0.09
2013-11-14,77,72,69,62,59,55,70,62,55,30.25,30.14,15,3,15,0.00
2013-11-15,81,76,73,69,67,62,77,73,64,30.15,30.04,16,2,16,0.00
2013-11-16,80,78,73,72,70,67,92,78,70,30.10,30.02,11,1,11,0.06
2013-11-17,84,79,76,74,71,69,86,77,68,30.09,30.01,11,1,12,0.01
2013-11-18,84,77,71,74,71,69,97,82,68,30.04,29.93,10,0,11,0.00
2013-11-19,84,74,71,75,71,69,98,90,68,29.94,29.86,6,0,7,3.29
2013-11-20,84,76,69,75,72,68,99,88,73,30.06,29.93,7,0,8,0.02
2013-11-21,80,76,71,74,72,69,96,88,80,30.15,30.04,14,1,14,0.77
2013-11-22,82,78,75,72,70,68,84,79,70,30.16,30.07,15,2,15,0.00
2013-11-23,83,77,71,72,70,68,91,81,68,30.09,29.98,10,1,10,0.00
2013-11-24,81,73,66,71,67,63,98,84,64,30.15,29.99,17,2,20,0.57
2013-11-25,74,72,71,69,65,60,85,76,66,30.21,30.06,16,3,16,0.00
2013-11-26,82,77,72,75,73,68,93,86,78,30.06,29.83,18,3,18,0.07
2013-11-27,78,71,57,75,65,51,97,82,54,30.12,29.79,20,2,20,0.63
2013-11-28,74,63,48,60,53,45,91,73,54,30.25,30.12,10,2,12,0.00
2013-11-29,77,71,59,63,60,55,92,69,57,30.27,30.19,14,2,14,0.00
2013-11-30,76,70,61,70,63,59,95,79,66,30.22,30.11,14,2,17,0.32
2013-12-1,82,70,63,70,66,61,97,87,68,30.11,29.94,9,0,9,1.00
2013-12-2,75,67,60,67,64,59,99,90,64,29.95,29.83,12,1,14,0.21
2013-12-3,79,69,58,65,63,57,99,83,55,30.01,29.90,7,0,7,0.01
2013-12-4,82,71,62,69,65,61,99,83,63,30.10,29.99,11,1,11,0.00
2013-12-5,82,76,67,71,69,65,96,80,68,30.17,30.08,13,1,13,0.00
2013-12-6,82,77,73,71,69,66,83,76,67,30.19,30.09,13,2,15,0.00
2013-12-7,83,75,68,74,70,66,96,83,67,30.22,30.14,9,1,9,0.03
2013-12-8,83,78,74,71,69,66,88,76,64,30.21,30.13,13,1,14,0.00
2013-12-9,83,78,75,71,69,66,83,74,61,30.20,30.11,12,2,13,0.00
2013-12-10,83,77,71,73,71,69,95,81,70,30.17,30.07,13,1,13,0.00
2013-12-11,84,75,68,74,70,67,99,87,67,30.20,30.12,7,0,7,0.01
2013-12-12,80,72,69,71,67,59,98,84,66,30.23,30.14,14,2,17,0.02
2013-12-14,81,78,75,72,71,68,88,80,72,30.12,29.99,15,3,15,0.02
2013-12-15,84,76,70,75,71,67,95,86,72,30.06,29.93,13,1,13,0.00
2013-12-16,75,68,61,67,61,58,91,81,65,30.16,30.04,10,1,10,0.00
2013-12-17,77,66,58,64,59,56,96,80,57,30.19,30.10,10,1,10,0.00
2013-12-18,77,66,58,60,58,56,95,78,53,30.24,30.14,12,1,13,0.01
2013-12-19,78,70,59,64,60,56,94,72,55,30.25,30.16,11,1,12,0.00
2013-12-20,82,76,72,70,67,62,81,74,67,30.19,30.11,12,1,12,0.00
2013-12-21,82,78,76,73,71,69,87,81,72,30.15,30.06,13,2,16,0.00
2013-12-22,83,78,76,74,72,70,86,81,71,30.17,30.09,16,3,16,0.00
2013-12-23,83,77,69,74,72,68,96,83,74,30.18,30.12,14,2,14,0.00
2013-12-24,84,71,66,73,67,62,99,86,66,30.18,30.09,14,2,17,0.01
2013-12-25,78,73,70,67,66,64,83,77,68,30.18,30.10,13,2,14,0.00
2013-12-26,78,75,72,70,69,67,91,82,76,30.17,30.07,11,1,11,0.14
2013-12-27,81,76,72,72,70,67,92,82,74,30.20,30.09,11,1,11,0.14
2013-12-28,80,76,71,73,70,67,91,84,77,30.18,30.03,14,2,14,0.01
2013-12-29,81,77,73,75,73,71,96,87,78,30.04,29.93,17,3,17,0.04
2013-12-30,79,72,69,72,69,65,98,91,77,30.15,29.98,8,0,8,0.00
2013-12-31,79,72,67,68,65,62,89,77,63,30.23,30.11,13,2,14,0.00
2014-1-1,81,76,72,74,70,64,89,83,73,30.20,30.05,13,2,13,0.00
2014-1-2,86,78,73,72,69,65,90,76,50,30.04,29.87,16,2,16,0.00